Time;durP1;ratioP1;P1;durP2;ratioP2;P2;SDS_P1;SDS_P2;PMS_P1;PMS_P2;Temp;Humidity;BMP_temperature;BMP_pressure;BME280_temperature;BME280_humidity;BME280_pressure;Samples;Min_cycle;Max_cycle;Signal;HPM_P1;HPM_P2
2024/01/28 00:02:50;;;;;;;13.27;3.83;;;14.60;99.90;;;;;;10521986;28;20158;-58
2024/01/28 00:07:52;;;;;;;11.43;3.42;;;14.60;99.90;;;;;;10526591;28;20075;-56
2024/01/28 00:12:56;;;;;;;8.13;3.13;;;14.70;99.90;;;;;;10522928;28;20541;-56
2024/01/28 00:17:58;;;;;;;9.45;4.05;;;14.70;99.90;;;;;;10513321;28;20451;-54
2024/01/28 00:23:00;;;;;;;8.73;4.57;;;14.70;99.90;;;;;;10517243;28;20316;-56
2024/01/28 00:28:03;;;;;;;8.70;3.63;;;14.60;99.90;;;;;;10523862;28;20552;-56
2024/01/28 00:33:05;;;;;;;11.35;3.53;;;14.60;99.90;;;;;;10530263;28;20054;-54
2024/01/28 00:38:07;;;;;;;12.48;4.15;;;14.80;99.90;;;;;;10528015;28;20040;-56
2024/01/28 00:43:11;;;;;;;6.63;3.53;;;14.60;99.90;;;;;;10530442;28;20060;-55
2024/01/28 00:48:13;;;;;;;9.80;3.45;;;14.60;99.90;;;;;;10520314;28;20368;-55
2024/01/28 00:53:17;;;;;;;8.77;3.20;;;14.70;99.90;;;;;;10521548;28;20071;-54
2024/01/28 00:58:20;;;;;;;8.13;3.92;;;14.80;99.90;;;;;;10533438;28;20442;-56
2024/01/28 01:03:22;;;;;;;9.57;3.42;;;14.70;99.90;;;;;;10526409;28;20047;-56
2024/01/28 01:08:24;;;;;;;7.20;3.83;;;14.60;99.90;;;;;;10531993;28;20048;-54
2024/01/28 01:13:28;;;;;;;12.32;4.20;;;14.60;99.90;;;;;;10526931;28;20052;-54
2024/01/28 01:18:30;;;;;;;8.25;4.00;;;14.60;99.90;;;;;;10526499;28;20036;-57
2024/01/28 01:23:32;;;;;;;8.37;4.20;;;14.50;99.90;;;;;;10524174;28;20056;-55
2024/01/28 01:28:35;;;;;;;7.00;3.60;;;14.40;99.90;;;;;;10534069;28;20465;-56
2024/01/28 01:33:37;;;;;;;8.85;4.07;;;14.40;99.90;;;;;;10526166;28;20058;-55
2024/01/28 01:38:39;;;;;;;10.40;3.53;;;14.40;99.90;;;;;;10529438;28;20050;-55
2024/01/28 01:43:42;;;;;;;10.90;3.97;;;14.40;99.90;;;;;;10526601;28;20513;-57
2024/01/28 01:48:45;;;;;;;7.50;3.47;;;14.40;99.90;;;;;;10528375;28;20128;-59
2024/01/28 01:53:48;;;;;;;8.10;3.63;;;14.30;99.90;;;;;;10522576;28;20048;-54
2024/01/28 01:58:53;;;;;;;9.57;3.83;;;14.20;99.90;;;;;;10529655;28;20040;-55
2024/01/28 02:03:57;;;;;;;7.93;3.45;;;14.30;99.90;;;;;;10522052;28;20048;-57
2024/01/28 02:08:59;;;;;;;9.25;4.13;;;14.40;99.90;;;;;;10519825;28;20050;-56
2024/01/28 02:14:02;;;;;;;8.13;3.40;;;14.30;99.90;;;;;;10529094;28;20055;-53
2024/01/28 02:19:05;;;;;;;9.25;3.35;;;14.20;99.90;;;;;;10521232;28;20063;-58
2024/01/28 02:24:08;;;;;;;12.33;4.20;;;14.00;99.90;;;;;;10521897;28;20056;-57
2024/01/28 02:29:10;;;;;;;6.45;3.30;;;14.10;99.90;;;;;;10523473;28;20383;-57
2024/01/28 02:34:12;;;;;;;7.07;4.00;;;14.20;99.90;;;;;;10523956;28;20058;-56
2024/01/28 02:39:16;;;;;;;7.03;4.03;;;14.20;99.90;;;;;;10524490;28;20504;-57
2024/01/28 02:44:18;;;;;;;6.00;3.55;;;14.10;99.90;;;;;;10519044;28;20048;-56
2024/01/28 02:49:21;;;;;;;7.50;3.70;;;14.10;99.90;;;;;;10520859;28;20051;-54
2024/01/28 02:54:25;;;;;;;11.18;3.75;;;14.20;99.90;;;;;;10524259;28;20093;-55
2024/01/28 02:59:27;;;;;;;8.38;3.95;;;14.20;99.90;;;;;;10524154;28;20059;-56
2024/01/28 03:04:29;;;;;;;6.67;2.90;;;14.20;99.90;;;;;;10523465;28;20170;-58
2024/01/28 03:09:32;;;;;;;6.50;3.67;;;14.00;99.90;;;;;;10525467;28;20407;-56
2024/01/28 03:14:34;;;;;;;7.72;3.40;;;13.90;99.90;;;;;;10523644;28;20040;-55
2024/01/28 03:19:36;;;;;;;6.67;3.70;;;14.10;99.90;;;;;;10522657;28;20877;-55
2024/01/28 03:24:40;;;;;;;8.57;3.33;;;14.10;99.90;;;;;;10522501;28;20048;-57
2024/01/28 03:29:42;;;;;;;6.03;3.30;;;14.00;99.90;;;;;;10521974;28;20415;-57
2024/01/28 03:34:45;;;;;;;9.77;3.77;;;13.80;99.90;;;;;;10516854;28;20142;-58
2024/01/28 03:39:48;;;;;;;7.50;3.30;;;13.90;99.90;;;;;;10519233;28;20040;-56
2024/01/28 03:44:50;;;;;;;5.85;3.38;;;13.90;99.90;;;;;;10521360;28;20052;-55
2024/01/28 03:49:52;;;;;;;8.77;3.67;;;13.90;99.90;;;;;;10515325;28;20867;-58
2024/01/28 03:54:56;;;;;;;5.97;3.15;;;13.80;99.90;;;;;;10517807;28;20595;-56
2024/01/28 04:15:32;;;;;;;8.57;3.83;;;14.10;99.90;;;;;;10535087;27;20708;-56
2024/01/28 04:20:34;;;;;;;6.63;3.70;;;14.10;99.90;;;;;;10554423;28;20043;-56
2024/01/28 04:25:36;;;;;;;8.53;3.57;;;14.00;99.90;;;;;;10553644;27;20822;-56
2024/01/28 04:30:39;;;;;;;10.07;3.58;;;14.00;99.90;;;;;;10552328;28;20059;-57
2024/01/28 04:35:41;;;;;;;9.05;3.55;;;13.90;99.90;;;;;;10557130;27;20063;-57
2024/01/28 04:40:44;;;;;;;7.30;3.43;;;14.00;99.90;;;;;;10553452;27;20047;-55
2024/01/28 04:45:47;;;;;;;8.02;3.30;;;14.00;99.90;;;;;;10552878;28;20170;-55
2024/01/28 04:50:49;;;;;;;8.00;3.45;;;13.90;99.90;;;;;;10552569;28;20083;-53
2024/01/28 04:55:51;;;;;;;9.82;3.28;;;14.00;99.90;;;;;;10549127;28;20063;-56
2024/01/28 05:00:55;;;;;;;7.30;3.20;;;13.80;99.90;;;;;;10551400;28;20149;-55
2024/01/28 05:05:58;;;;;;;9.38;3.35;;;13.80;99.90;;;;;;10548719;27;20104;-56
2024/01/28 05:11:00;;;;;;;6.18;3.15;;;13.80;99.90;;;;;;10550598;27;20052;-55
2024/01/28 05:16:04;;;;;;;6.77;2.93;;;13.90;99.90;;;;;;10550708;27;20181;-54
2024/01/28 05:21:06;;;;;;;7.65;3.03;;;14.00;99.90;;;;;;10545377;27;20514;-55
2024/01/28 05:26:08;;;;;;;6.57;2.67;;;14.20;99.90;;;;;;10520389;28;20052;-57
2024/01/28 05:31:12;;;;;;;4.80;2.73;;;14.30;99.90;;;;;;10518118;28;21301;-55
2024/01/28 05:36:15;;;;;;;6.15;3.05;;;14.30;99.90;;;;;;10515651;28;20092;-58
2024/01/28 05:41:17;;;;;;;8.18;3.22;;;14.50;99.90;;;;;;10518622;28;20485;-55
2024/01/28 05:46:20;;;;;;;5.17;3.30;;;14.50;99.90;;;;;;10514883;28;20050;-55
2024/01/28 05:51:22;;;;;;;6.45;3.00;;;14.60;99.90;;;;;;10519224;28;20968;-56
2024/01/28 05:56:24;;;;;;;7.57;3.00;;;14.60;99.90;;;;;;10519559;28;20050;-58
2024/01/28 06:01:28;;;;;;;4.83;2.80;;;14.50;99.90;;;;;;10526420;28;20051;-55
2024/01/28 06:06:29;;;;;;;7.85;3.60;;;14.60;99.90;;;;;;10527376;28;20505;-56
2024/01/28 06:11:31;;;;;;;3.73;2.50;;;14.60;99.90;;;;;;10524638;28;20582;-57
2024/01/28 06:16:35;;;;;;;4.17;2.60;;;14.70;99.90;;;;;;10516456;28;20060;-58
2024/01/28 06:21:37;;;;;;;8.52;3.60;;;14.60;99.90;;;;;;10518965;28;20055;-56
2024/01/28 06:26:39;;;;;;;5.90;2.80;;;14.60;99.90;;;;;;10518180;28;20112;-56
2024/01/28 06:31:42;;;;;;;6.13;2.70;;;14.70;99.90;;;;;;10517975;28;20316;-58
2024/01/28 06:36:44;;;;;;;6.07;2.72;;;14.50;99.90;;;;;;10518543;28;20088;-56
2024/01/28 06:41:48;;;;;;;5.97;2.73;;;14.30;99.90;;;;;;10514470;28;20071;-56
2024/01/28 06:46:51;;;;;;;8.82;2.80;;;14.30;99.90;;;;;;10514546;28;20039;-56
2024/01/28 06:51:53;;;;;;;7.50;2.67;;;14.30;99.90;;;;;;10515580;28;20055;-55
2024/01/28 06:56:55;;;;;;;4.97;2.35;;;14.30;99.90;;;;;;10514075;28;20048;-51
2024/01/28 07:01:59;;;;;;;7.30;3.53;;;14.30;99.90;;;;;;10512220;28;20086;-53
2024/01/28 07:07:01;;;;;;;5.80;2.58;;;14.40;99.90;;;;;;10518108;28;20616;-55
2024/01/28 07:12:03;;;;;;;6.30;2.90;;;14.40;99.90;;;;;;10522938;28;20078;-56
2024/01/28 07:17:07;;;;;;;4.43;2.60;;;14.40;99.90;;;;;;10514001;28;20054;-57
2024/01/28 07:22:11;;;;;;;6.15;2.22;;;14.40;99.90;;;;;;10514924;28;20368;-57
2024/01/28 07:27:13;;;;;;;3.47;2.30;;;14.30;99.90;;;;;;10498073;28;20060;-54
2024/01/28 07:32:16;;;;;;;4.50;2.40;;;14.30;99.90;;;;;;10502218;28;20155;-56
2024/01/28 07:37:19;;;;;;;6.68;2.55;;;14.30;99.90;;;;;;10504156;28;20113;-54
2024/01/28 07:42:21;;;;;;;4.35;2.25;;;14.30;99.90;;;;;;10503880;28;20096;-57
2024/01/28 07:47:24;;;;;;;3.50;1.97;;;14.30;99.90;;;;;;10497088;28;20158;-56
2024/01/28 07:52:26;;;;;;;5.00;2.47;;;14.30;99.90;;;;;;10499115;28;20082;-59
2024/01/28 07:57:28;;;;;;;16.70;2.70;;;14.20;99.90;;;;;;10497763;28;20063;-56
2024/01/28 08:02:31;;;;;;;11.80;3.47;;;14.10;99.90;;;;;;10496645;28;20048;-57
2024/01/28 08:07:33;;;;;;;5.78;2.75;;;14.00;99.90;;;;;;10491784;28;20052;-55
2024/01/28 08:12:35;;;;;;;5.90;2.63;;;14.10;99.90;;;;;;10505885;28;20213;-54
2024/01/28 08:17:39;;;;;;;6.47;2.40;;;14.20;99.90;;;;;;10516954;28;20061;-57
2024/01/28 08:22:41;;;;;;;5.97;2.50;;;14.40;99.90;;;;;;10501055;28;20051;-57
2024/01/28 08:27:44;;;;;;;14.53;3.47;;;14.30;99.90;;;;;;10496214;28;20454;-57
2024/01/28 08:32:47;;;;;;;13.95;4.38;;;14.40;99.90;;;;;;10498054;28;20088;-58
2024/01/28 08:37:50;;;;;;;24.67;5.30;;;14.30;99.90;;;;;;10507137;28;20052;-58
2024/01/28 08:42:53;;;;;;;;;;;14.40;99.90;;;;;;10505472;28;20138;-55
2024/01/28 08:47:56;;;;;;;15.30;4.37;;;14.70;99.90;;;;;;10502313;28;20003;-56
2024/01/28 08:52:58;;;;;;;10.40;3.67;;;14.50;99.90;;;;;;10500073;28;20609;-53
2024/01/28 08:58:00;;;;;;;7.27;3.33;;;14.50;99.90;;;;;;10517918;28;20039;-58
2024/01/28 09:03:04;;;;;;;6.72;2.90;;;14.40;99.90;;;;;;10519217;28;20155;-56
2024/01/28 09:08:07;;;;;;;8.68;2.88;;;14.50;99.90;;;;;;10514401;28;20055;-59
2024/01/28 09:13:09;;;;;;;13.45;3.08;;;14.40;99.90;;;;;;10513515;28;20050;-58
2024/01/28 09:18:13;;;;;;;6.87;3.27;;;14.50;99.90;;;;;;10509536;28;20428;-58
2024/01/28 09:23:15;;;;;;;5.60;2.95;;;14.40;99.90;;;;;;10512727;28;20063;-58
2024/01/28 09:28:17;;;;;;;5.50;2.53;;;14.50;99.90;;;;;;10516354;28;20822;-57
2024/01/28 09:33:20;;;;;;;6.87;3.00;;;14.50;99.90;;;;;;10514345;28;20082;-61
2024/01/28 09:38:22;;;;;;;5.40;2.60;;;14.70;99.90;;;;;;10516801;28;20075;-55
2024/01/28 09:43:29;;;;;;;9.10;2.80;;;14.60;99.90;;;;;;10514767;28;20044;-58
2024/01/28 09:48:33;;;;;;;6.22;2.50;;;14.50;99.90;;;;;;10515798;28;20472;-55
2024/01/28 09:53:35;;;;;;;4.47;2.03;;;14.30;99.90;;;;;;10504767;28;20075;-56
2024/01/28 09:58:39;;;;;;;6.70;2.60;;;14.50;99.90;;;;;;10514894;28;20110;-58
2024/01/28 10:03:43;;;;;;;5.22;2.30;;;14.50;99.90;;;;;;10511434;28;20048;-58
2024/01/28 10:08:47;;;;;;;7.28;2.17;;;14.30;99.90;;;;;;10517009;28;20785;-58
2024/01/28 10:13:49;;;;;;;2.67;1.65;;;14.50;99.90;;;;;;10509786;28;20088;-56
2024/01/28 10:18:52;;;;;;;5.47;2.87;;;14.30;99.90;;;;;;10512884;28;20055;-57
2024/01/28 10:23:54;;;;;;;9.98;3.38;;;14.40;99.90;;;;;;10505816;28;20040;-58
2024/01/28 10:28:57;;;;;;;8.82;2.47;;;14.50;99.90;;;;;;10508141;28;20543;-60
2024/01/28 10:34:00;;;;;;;7.18;2.08;;;14.70;99.90;;;;;;10506097;28;20069;-59
2024/01/28 10:39:04;;;;;;;6.72;2.47;;;14.70;99.90;;;;;;10511486;28;20048;-58
2024/01/28 10:44:08;;;;;;;6.78;2.50;;;14.70;99.90;;;;;;10509510;28;20055;-58
2024/01/28 10:49:12;;;;;;;4.50;2.38;;;14.70;99.90;;;;;;10508071;28;20048;-59
2024/01/28 10:54:15;;;;;;;4.90;2.38;;;14.70;99.90;;;;;;10515462;28;20526;-59
2024/01/28 10:59:18;;;;;;;4.03;2.38;;;14.80;99.90;;;;;;10503800;28;20086;-56
2024/01/28 11:04:21;;;;;;;7.75;2.20;;;14.70;99.90;;;;;;10503143;28;20540;-56
2024/01/28 11:09:24;;;;;;;5.63;2.47;;;14.80;99.90;;;;;;10502551;28;20138;-58
2024/01/28 11:14:26;;;;;;;5.43;2.25;;;14.70;99.90;;;;;;10502938;28;20043;-60
2024/01/28 11:19:30;;;;;;;4.80;1.80;;;15.00;99.90;;;;;;10506874;28;20139;-58
2024/01/28 11:24:51;;;;;;;3.85;2.00;;;15.10;99.90;;;;;;10503924;28;20063;-58
2024/01/28 11:29:57;;;;;;;5.07;2.17;;;15.20;99.90;;;;;;10510520;28;20047;-58
2024/01/28 11:35:01;;;;;;;4.70;2.22;;;15.10;99.90;;;;;;10510503;28;20491;-58
2024/01/28 11:40:05;;;;;;;5.45;2.67;;;15.20;99.90;;;;;;10510390;28;20052;-56
2024/01/28 11:45:08;;;;;;;6.78;2.97;;;15.50;99.90;;;;;;10503147;28;20051;-57
2024/01/28 11:50:12;;;;;;;5.07;2.63;;;15.40;99.90;;;;;;10502966;28;20078;-57
2024/01/28 11:55:15;;;;;;;7.13;2.92;;;15.40;99.90;;;;;;10497685;28;20550;-57
2024/01/28 12:00:18;;;;;;;4.43;2.33;;;15.10;99.90;;;;;;10499996;28;20059;-57
2024/01/28 12:05:21;;;;;;;4.45;2.83;;;15.40;99.90;;;;;;10507979;28;20044;-60
2024/01/28 12:10:23;;;;;;;6.43;2.80;;;15.70;99.90;;;;;;10505799;28;20051;-57
2024/01/28 12:15:25;;;;;;;4.87;1.87;;;15.60;99.90;;;;;;10517706;28;20055;-57
2024/01/28 12:20:28;;;;;;;6.05;2.78;;;15.90;99.90;;;;;;10508275;28;20682;-56
2024/01/28 12:25:30;;;;;;;7.20;2.53;;;16.00;99.90;;;;;;10512079;28;20520;-58
2024/01/28 12:30:32;;;;;;;4.30;2.03;;;15.90;99.90;;;;;;10502855;28;20894;-58
2024/01/28 12:35:36;;;;;;;5.70;2.55;;;15.90;99.90;;;;;;10506116;28;20055;-58
2024/01/28 12:40:38;;;;;;;6.47;2.97;;;16.10;99.90;;;;;;10518591;28;20062;-57
2024/01/28 12:45:40;;;;;;;5.63;2.90;;;16.20;99.90;;;;;;10514366;28;20048;-55
2024/01/28 12:50:45;;;;;;;9.77;3.03;;;16.20;99.90;;;;;;10517414;28;20056;-57
2024/01/28 12:55:48;;;;;;;6.68;2.38;;;16.40;99.90;;;;;;10520947;28;20072;-56
2024/01/28 13:00:50;;;;;;;;;;;16.40;99.90;;;;;;10515690;28;20052;-57
2024/01/28 13:05:54;;;;;;;7.45;3.95;;;16.20;99.90;;;;;;10516113;28;20646;-58
2024/01/28 13:11:00;;;;;;;7.70;2.58;;;16.10;99.90;;;;;;10515939;28;20558;-59
2024/01/28 13:16:02;;;;;;;9.60;3.95;;;15.90;99.90;;;;;;10516751;28;20040;-58
2024/01/28 13:21:05;;;;;;;11.20;4.87;;;16.00;99.90;;;;;;10512521;28;20063;-58
2024/01/28 13:26:07;;;;;;;5.65;2.83;;;16.00;99.90;;;;;;10522365;28;20470;-54
2024/01/28 13:31:09;;;;;;;4.97;2.90;;;15.90;99.90;;;;;;10503802;28;20910;-58
2024/01/28 13:36:13;;;;;;;7.10;2.95;;;16.10;99.90;;;;;;10515225;28;20162;-57
2024/01/28 13:41:15;;;;;;;5.45;3.20;;;16.30;99.90;;;;;;10519957;28;20051;-54
2024/01/28 13:46:18;;;;;;;7.85;2.70;;;16.60;99.90;;;;;;10510032;28;20055;-54
2024/01/28 13:51:23;;;;;;;8.68;2.85;;;16.80;99.90;;;;;;10510398;28;20056;-55
2024/01/28 13:56:25;;;;;;;4.88;2.90;;;17.10;99.90;;;;;;10508986;28;20634;-54
2024/01/28 14:01:27;;;;;;;6.28;2.33;;;17.10;99.90;;;;;;10510917;28;20062;-56
2024/01/28 14:06:31;;;;;;;6.45;3.25;;;17.30;99.90;;;;;;10513298;28;20044;-55
2024/01/28 14:11:33;;;;;;;5.00;2.40;;;17.30;99.90;;;;;;10514108;28;20058;-57
2024/01/28 14:16:35;;;;;;;7.32;2.97;;;17.30;99.90;;;;;;10514373;28;20056;-59
2024/01/28 14:21:38;;;;;;;8.88;2.60;;;17.40;99.90;;;;;;10508505;28;20445;-59
2024/01/28 14:26:40;;;;;;;3.97;2.35;;;17.50;99.90;;;;;;10511741;28;23029;-58
2024/01/28 14:31:42;;;;;;;7.25;2.78;;;17.50;99.90;;;;;;10510474;28;20063;-56
2024/01/28 14:36:46;;;;;;;4.90;2.55;;;17.50;99.90;;;;;;10512028;28;20059;-58
2024/01/28 14:41:48;;;;;;;7.60;3.40;;;17.60;99.90;;;;;;10512133;28;20163;-57
2024/01/28 14:46:50;;;;;;;7.35;3.65;;;17.60;99.90;;;;;;10511840;28;20105;-59
2024/01/28 14:51:54;;;;;;;4.50;2.88;;;17.80;99.90;;;;;;10492762;28;20054;-59
2024/01/28 14:56:56;;;;;;;5.53;3.28;;;17.80;99.90;;;;;;10503829;28;20163;-58
2024/01/28 15:01:58;;;;;;;;;;;17.80;99.90;;;;;;10511154;28;20078;-57
2024/01/28 15:07:02;;;;;;;8.98;3.33;;;17.90;99.90;;;;;;10512355;28;19951;-59
2024/01/28 15:12:04;;;;;;;7.78;3.17;;;17.90;99.90;;;;;;10508181;28;20472;-57
2024/01/28 15:17:07;;;;;;;4.60;2.33;;;17.80;99.90;;;;;;10510119;28;20044;-57
2024/01/28 15:22:10;;;;;;;;;;;18.00;99.90;;;;;;10512174;28;20071;-58
2024/01/28 15:27:12;;;;;;;12.40;3.22;;;18.00;99.90;;;;;;10512677;28;19927;-57
2024/01/28 15:32:14;;;;;;;8.15;3.53;;;17.90;99.90;;;;;;10510369;28;20156;-60
2024/01/28 15:37:17;;;;;;;5.32;2.20;;;17.90;99.90;;;;;;10511134;28;20055;-59
2024/01/28 15:42:19;;;;;;;4.18;2.55;;;18.00;99.90;;;;;;10512847;28;20044;-55
2024/01/28 15:47:21;;;;;;;6.18;2.92;;;17.90;99.90;;;;;;10513748;28;20048;-57
2024/01/28 15:52:25;;;;;;;6.05;2.13;;;18.00;99.90;;;;;;10510719;28;20044;-56
2024/01/28 15:57:27;;;;;;;9.35;2.88;;;18.00;99.90;;;;;;10509471;28;20082;-58
2024/01/28 16:02:29;;;;;;;3.92;2.28;;;17.90;99.90;;;;;;10511383;28;21366;-57
2024/01/28 16:07:33;;;;;;;4.63;2.58;;;17.90;99.90;;;;;;10514786;28;20040;-59
2024/01/28 16:12:34;;;;;;;6.43;2.72;;;17.90;99.90;;;;;;10501833;28;20136;-58
2024/01/28 16:17:37;;;;;;;5.30;2.90;;;18.00;99.90;;;;;;10504702;28;20082;-58
2024/01/28 16:22:40;;;;;;;7.28;2.95;;;17.80;99.90;;;;;;10503432;28;20189;-59
2024/01/28 16:27:42;;;;;;;6.15;2.85;;;17.70;99.90;;;;;;10507606;28;20208;-59
2024/01/28 16:32:44;;;;;;;5.70;2.95;;;17.80;99.90;;;;;;10504551;28;20562;-58
2024/01/28 16:37:49;;;;;;;8.38;3.25;;;17.70;99.90;;;;;;10511806;28;20047;-59
2024/01/28 16:42:51;;;;;;;3.85;2.65;;;17.60;99.90;;;;;;10502380;28;20596;-58
2024/01/28 16:47:53;;;;;;;11.77;3.60;;;17.50;99.90;;;;;;10502972;28;20124;-60
2024/01/28 16:52:57;;;;;;;7.13;3.03;;;17.40;99.90;;;;;;10513150;28;20132;-57
2024/01/28 16:58:00;;;;;;;4.10;2.72;;;17.40;99.90;;;;;;10506500;28;20067;-57
2024/01/28 17:03:02;;;;;;;6.63;3.28;;;17.20;99.90;;;;;;10506054;28;20109;-57
2024/01/28 17:08:06;;;;;;;10.88;4.22;;;17.20;99.90;;;;;;10506640;28;20051;-56
2024/01/28 17:13:08;;;;;;;6.03;3.05;;;17.20;99.90;;;;;;10511345;28;20422;-58
2024/01/28 17:18:12;;;;;;;6.75;3.17;;;17.00;99.90;;;;;;10511743;28;20051;-58
2024/01/28 17:23:16;;;;;;;5.25;2.53;;;17.00;99.90;;;;;;10510573;28;20047;-56
2024/01/28 17:28:19;;;;;;;8.27;3.03;;;16.90;99.90;;;;;;10502358;28;20408;-56
2024/01/28 17:33:21;;;;;;;;;;;16.90;99.90;;;;;;10507211;28;20807;-57
2024/01/28 17:38:24;;;;;;;7.28;3.35;;;16.80;99.90;;;;;;10509408;28;20363;-57
2024/01/28 17:43:28;;;;;;;5.97;2.70;;;16.80;99.90;;;;;;10508812;28;20479;-57
2024/01/28 17:48:30;;;;;;;6.03;3.10;;;16.80;99.90;;;;;;10507376;28;20056;-54
2024/01/28 17:53:33;;;;;;;8.07;4.05;;;16.60;99.90;;;;;;10515257;28;20105;-56
2024/01/28 17:58:36;;;;;;;6.75;3.10;;;16.60;99.90;;;;;;10506862;28;20784;-61
2024/01/28 18:03:38;;;;;;;8.88;3.65;;;16.60;99.90;;;;;;10506482;28;20774;-57
2024/01/28 18:08:42;;;;;;;10.18;3.67;;;16.60;99.90;;;;;;10509258;28;20048;-57
2024/01/28 18:13:44;;;;;;;6.65;3.72;;;16.00;99.90;;;;;;10504352;28;20109;-57
2024/01/28 18:18:46;;;;;;;11.73;4.05;;;15.80;99.90;;;;;;10500380;28;20067;-60
2024/01/28 18:23:49;;;;;;;6.45;2.85;;;15.70;99.90;;;;;;10507115;28;20056;-60
2024/01/28 18:28:51;;;;;;;7.18;3.28;;;16.00;99.90;;;;;;10508284;28;20824;-59
2024/01/28 18:33:55;;;;;;;6.53;3.00;;;16.10;99.90;;;;;;10512803;28;22612;-57
2024/01/28 18:39:04;;;;;;;6.30;3.58;;;15.80;99.90;;;;;;10506191;28;20047;-58
2024/01/28 18:44:07;;;;;;;6.50;3.55;;;16.00;99.90;;;;;;10510810;28;20212;-57
2024/01/28 18:49:10;;;;;;;11.10;4.28;;;16.10;99.90;;;;;;10499032;28;20054;-59
2024/01/28 18:54:13;;;;;;;11.77;4.45;;;16.40;99.90;;;;;;10507443;28;20044;-56
2024/01/28 18:59:15;;;;;;;13.52;5.47;;;16.90;99.90;;;;;;10504340;28;20142;-58
2024/01/28 19:04:17;;;;;;;15.70;5.33;;;16.60;99.90;;;;;;10506408;28;20097;-59
2024/01/28 19:09:21;;;;;;;7.90;3.97;;;16.40;99.90;;;;;;10504795;28;20556;-57
2024/01/28 19:14:23;;;;;;;7.15;4.50;;;16.20;99.90;;;;;;10507189;28;20063;-57
2024/01/28 19:19:25;;;;;;;11.27;5.10;;;16.20;99.90;;;;;;10503175;28;20056;-56
2024/01/28 19:24:29;;;;;;;7.47;3.47;;;16.50;99.90;;;;;;10509895;28;20056;-59
2024/01/28 19:29:31;;;;;;;8.88;4.35;;;16.40;99.90;;;;;;10502270;28;20073;-60
2024/01/28 19:34:33;;;;;;;11.32;4.15;;;16.40;99.90;;;;;;10503103;28;20046;-58
2024/01/28 19:39:37;;;;;;;9.63;4.60;;;16.10;99.90;;;;;;10507446;28;20079;-56
2024/01/28 19:44:39;;;;;;;7.88;4.13;;;16.30;99.90;;;;;;10508017;28;20086;-57
2024/01/28 19:49:40;;;;;;;5.10;3.40;;;16.60;99.90;;;;;;10506130;28;20084;-57
2024/01/28 19:54:44;;;;;;;9.07;3.83;;;16.60;99.90;;;;;;10504392;28;20115;-57
2024/01/28 19:59:47;;;;;;;9.15;3.65;;;16.20;99.90;;;;;;10509488;28;20465;-57
2024/01/28 20:04:48;;;;;;;8.05;3.80;;;16.20;99.90;;;;;;10504097;28;20044;-58
2024/01/28 20:09:59;;;;;;;10.63;3.90;;;16.40;99.90;;;;;;10499433;28;20161;-59
2024/01/28 20:15:01;;;;;;;8.55;4.10;;;16.40;99.90;;;;;;10502598;28;20055;-60
2024/01/28 20:20:03;;;;;;;7.55;4.22;;;16.30;99.90;;;;;;10504154;28;20076;-58
2024/01/28 20:25:08;;;;;;;6.43;3.20;;;16.20;99.90;;;;;;10500271;28;20089;-59
2024/01/28 20:30:10;;;;;;;7.47;4.22;;;16.00;99.90;;;;;;10501747;28;20083;-58
2024/01/28 20:35:13;;;;;;;5.35;3.90;;;16.00;99.90;;;;;;10509321;28;20448;-55
2024/01/28 20:40:17;;;;;;;;;;;15.90;99.90;;;;;;10512723;28;20075;-56
2024/01/28 20:45:21;;;;;;;6.40;3.63;;;16.30;99.90;;;;;;10509939;28;19992;-55
2024/01/28 20:50:23;;;;;;;6.82;4.07;;;16.30;99.90;;;;;;10510477;28;20043;-56
2024/01/28 20:55:26;;;;;;;6.25;4.22;;;16.40;99.90;;;;;;10511413;28;20087;-56
2024/01/28 21:00:28;;;;;;;8.32;3.60;;;16.30;99.90;;;;;;10517694;28;20705;-55
2024/01/28 21:05:31;;;;;;;7.70;4.50;;;16.40;99.90;;;;;;10511163;28;20605;-58
2024/01/28 21:10:34;;;;;;;9.45;3.63;;;16.40;99.90;;;;;;10508017;28;20496;-58
2024/01/28 21:15:36;;;;;;;9.50;3.97;;;16.20;99.90;;;;;;10519784;28;20733;-58
2024/01/28 21:20:39;;;;;;;12.07;3.73;;;16.30;99.90;;;;;;10516089;28;20915;-57
2024/01/28 21:25:43;;;;;;;15.43;4.65;;;16.30;99.90;;;;;;10517690;28;20103;-59
2024/01/28 21:30:45;;;;;;;6.90;3.25;;;16.10;99.90;;;;;;10519809;28;20185;-59
2024/01/28 21:35:47;;;;;;;8.65;3.85;;;15.80;99.90;;;;;;10520192;28;20174;-58
2024/01/28 21:40:50;;;;;;;7.80;4.03;;;16.10;99.90;;;;;;10517656;28;20059;-57
2024/01/28 21:45:52;;;;;;;8.95;3.88;;;16.00;99.90;;;;;;10514748;28;20419;-58
2024/01/28 21:50:54;;;;;;;6.43;4.17;;;16.10;99.90;;;;;;10519559;28;20083;-58
2024/01/28 21:56:00;;;;;;;6.93;4.47;;;15.90;99.90;;;;;;10527351;28;20048;-56
2024/01/28 22:01:02;;;;;;;6.82;4.15;;;15.70;99.90;;;;;;10520050;28;20114;-60
2024/01/28 22:06:04;;;;;;;7.03;4.10;;;15.80;99.90;;;;;;10531849;28;20040;-56
2024/01/28 22:11:08;;;;;;;12.65;5.07;;;15.90;99.90;;;;;;10513991;28;20079;-58
2024/01/28 22:16:10;;;;;;;9.00;5.85;;;15.70;99.90;;;;;;10515153;28;20052;-57
2024/01/28 22:21:11;;;;;;;11.27;6.07;;;15.40;99.90;;;;;;10515195;28;20128;-59
2024/01/28 22:26:15;;;;;;;9.87;4.77;;;15.30;99.90;;;;;;10513240;28;20162;-58
2024/01/28 22:31:17;;;;;;;7.97;4.45;;;15.50;99.90;;;;;;10515275;28;20047;-60
2024/01/28 22:36:19;;;;;;;7.07;3.87;;;15.80;99.90;;;;;;10507713;28;20075;-59
2024/01/28 22:41:22;;;;;;;9.73;4.50;;;16.00;99.90;;;;;;10509047;28;20570;-58
2024/01/28 22:46:24;;;;;;;6.55;4.28;;;16.00;99.90;;;;;;10490574;28;20132;-59
2024/01/28 22:51:26;;;;;;;8.60;5.25;;;15.90;99.90;;;;;;10509852;27;20062;-58
2024/01/28 22:56:29;;;;;;;8.40;4.17;;;15.80;99.90;;;;;;10515608;28;20163;-59
2024/01/28 23:01:31;;;;;;;8.57;3.90;;;15.90;99.90;;;;;;10507626;28;20043;-58
2024/01/28 23:06:33;;;;;;;6.38;4.47;;;15.70;99.90;;;;;;10504238;28;20060;-59
2024/01/28 23:11:37;;;;;;;8.18;4.53;;;15.70;99.90;;;;;;10513323;28;20067;-58
2024/01/28 23:16:39;;;;;;;6.22;4.63;;;15.60;99.90;;;;;;10516982;28;20059;-58
2024/01/28 23:21:41;;;;;;;7.57;5.07;;;15.30;99.90;;;;;;10504337;28;20087;-58
2024/01/28 23:26:44;;;;;;;6.32;4.97;;;15.00;99.90;;;;;;10512544;28;20745;-58
2024/01/28 23:31:47;;;;;;;6.50;4.53;;;14.90;99.90;;;;;;10509887;28;20224;-59
2024/01/28 23:36:49;;;;;;;7.88;4.25;;;14.80;99.90;;;;;;10516800;28;20088;-58
2024/01/28 23:41:52;;;;;;;11.90;5.87;;;14.80;99.90;;;;;;10515057;28;20087;-57
2024/01/28 23:46:54;;;;;;;11.77;5.40;;;14.60;99.90;;;;;;10514197;28;20175;-60
2024/01/28 23:51:56;;;;;;;8.60;4.93;;;14.70;99.90;;;;;;10509992;28;20072;-58
2024/01/28 23:57:00;;;;;;;10.17;5.03;;;15.00;99.90;;;;;;10511119;28;20121;-59
